sensor_id;sensor_type;location;lat;lon;timestamp;P1;durP1;ratioP1;P2;durP2;ratioP2
13014;SDS011;6573;57.696;11.950;2024-03-23T11:26:15;22.70;;;5.50;;
13014;SDS011;6573;57.696;11.950;2024-03-23T11:38:51;22.60;;;5.73;;
13014;SDS011;6573;57.696;11.950;2024-03-23T11:56:42;26.33;;;5.30;;
13014;SDS011;6573;57.696;11.950;2024-03-23T12:19:19;23.00;;;5.40;;
13014;SDS011;6573;57.696;11.950;2024-03-23T12:48:51;33.87;;;5.57;;
13014;SDS011;6573;57.696;11.950;2024-03-23T12:51:58;19.27;;;5.40;;
13014;SDS011;6573;57.696;11.950;2024-03-23T12:54:27;20.50;;;4.80;;
13014;SDS011;6573;57.696;11.950;2024-03-23T12:56:53;21.27;;;4.73;;
13014;SDS011;6573;57.696;11.950;2024-03-23T12:59:22;21.87;;;5.40;;
13014;SDS011;6573;57.696;11.950;2024-03-23T13:01:48;23.73;;;5.23;;
13014;SDS011;6573;57.696;11.950;2024-03-23T14:07:11;14.90;;;3.90;;
13014;SDS011;6573;57.696;11.950;2024-03-23T14:12:49;13.93;;;3.57;;
13014;SDS011;6573;57.696;11.950;2024-03-23T14:43:57;12.17;;;3.10;;
13014;SDS011;6573;57.696;11.950;2024-03-23T14:46:28;12.20;;;3.00;;
13014;SDS011;6573;57.696;11.950;2024-03-23T14:48:56;12.90;;;3.17;;
13014;SDS011;6573;57.696;11.950;2024-03-23T14:51:24;13.07;;;3.30;;
13014;SDS011;6573;57.696;11.950;2024-03-23T14:53:51;13.70;;;3.30;;
13014;SDS011;6573;57.696;11.950;2024-03-23T14:56:19;14.20;;;3.80;;
13014;SDS011;6573;57.696;11.950;2024-03-23T14:58:46;18.73;;;3.53;;
13014;SDS011;6573;57.696;11.950;2024-03-23T15:01:35;17.87;;;3.90;;
13014;SDS011;6573;57.696;11.950;2024-03-23T15:04:03;21.87;;;4.00;;
13014;SDS011;6573;57.696;11.950;2024-03-23T15:06:30;16.63;;;3.97;;
13014;SDS011;6573;57.696;11.950;2024-03-23T15:08:59;15.20;;;3.27;;
13014;SDS011;6573;57.696;11.950;2024-03-23T15:11:25;17.53;;;3.73;;
13014;SDS011;6573;57.696;11.950;2024-03-23T15:13:54;13.20;;;3.37;;
13014;SDS011;6573;57.696;11.950;2024-03-23T15:16:21;13.13;;;3.40;;
13014;SDS011;6573;57.696;11.950;2024-03-23T15:18:50;14.83;;;3.30;;
13014;SDS011;6573;57.696;11.950;2024-03-23T15:21:17;11.83;;;3.03;;
13014;SDS011;6573;57.696;11.950;2024-03-23T15:23:46;14.03;;;3.37;;
13014;SDS011;6573;57.696;11.950;2024-03-23T15:26:12;16.67;;;4.00;;
13014;SDS011;6573;57.696;11.950;2024-03-23T15:28:41;14.17;;;3.17;;
13014;SDS011;6573;57.696;11.950;2024-03-23T15:31:28;15.40;;;3.93;;
13014;SDS011;6573;57.696;11.950;2024-03-23T15:33:58;15.43;;;4.20;;
13014;SDS011;6573;57.696;11.950;2024-03-23T15:36:25;14.33;;;3.37;;
13014;SDS011;6573;57.696;11.950;2024-03-23T15:38:52;13.30;;;3.60;;
13014;SDS011;6573;57.696;11.950;2024-03-23T15:41:20;13.53;;;3.67;;
13014;SDS011;6573;57.696;11.950;2024-03-23T15:43:50;17.10;;;3.73;;
13014;SDS011;6573;57.696;11.950;2024-03-23T15:46:17;16.27;;;3.97;;
13014;SDS011;6573;57.696;11.950;2024-03-23T15:48:46;15.90;;;4.03;;
13014;SDS011;6573;57.696;11.950;2024-03-23T15:51:17;11.90;;;2.97;;
13014;SDS011;6573;57.696;11.950;2024-03-23T15:53:47;13.50;;;3.10;;
13014;SDS011;6573;57.696;11.950;2024-03-23T15:56:14;14.10;;;3.60;;
13014;SDS011;6573;57.696;11.950;2024-03-23T15:58:41;14.57;;;3.60;;
13014;SDS011;6573;57.696;11.950;2024-03-23T16:01:08;13.40;;;3.40;;
13014;SDS011;6573;57.696;11.950;2024-03-23T16:03:39;19.00;;;3.80;;
13014;SDS011;6573;57.696;11.950;2024-03-23T16:06:07;13.73;;;3.40;;
13014;SDS011;6573;57.696;11.950;2024-03-23T16:08:38;14.93;;;3.87;;
13014;SDS011;6573;57.696;11.950;2024-03-23T16:11:05;13.60;;;3.30;;
13014;SDS011;6573;57.696;11.950;2024-03-23T16:13:35;15.07;;;3.90;;
13014;SDS011;6573;57.696;11.950;2024-03-23T16:16:03;16.87;;;4.00;;
13014;SDS011;6573;57.696;11.950;2024-03-23T16:18:36;14.57;;;4.30;;
13014;SDS011;6573;57.696;11.950;2024-03-23T16:21:06;16.53;;;3.60;;
13014;SDS011;6573;57.696;11.950;2024-03-23T16:24:16;12.23;;;3.40;;
13014;SDS011;6573;57.696;11.950;2024-03-23T16:35:02;16.13;;;3.80;;
13014;SDS011;6573;57.696;11.950;2024-03-23T16:37:52;17.57;;;4.43;;
13014;SDS011;6573;57.696;11.950;2024-03-23T16:40:18;15.30;;;4.37;;
13014;SDS011;6573;57.696;11.950;2024-03-23T16:42:46;14.87;;;4.00;;
13014;SDS011;6573;57.696;11.950;2024-03-23T16:45:15;17.30;;;4.07;;
13014;SDS011;6573;57.696;11.950;2024-03-23T16:47:44;16.50;;;3.47;;
13014;SDS011;6573;57.696;11.950;2024-03-23T16:50:12;14.67;;;4.07;;
13014;SDS011;6573;57.696;11.950;2024-03-23T16:52:40;15.77;;;4.43;;
13014;SDS011;6573;57.696;11.950;2024-03-23T16:58:04;13.13;;;3.50;;
13014;SDS011;6573;57.696;11.950;2024-03-23T17:00:35;14.30;;;3.77;;
13014;SDS011;6573;57.696;11.950;2024-03-23T17:03:08;15.73;;;3.33;;
13014;SDS011;6573;57.696;11.950;2024-03-23T17:05:38;22.43;;;3.67;;
13014;SDS011;6573;57.696;11.950;2024-03-23T17:08:06;16.63;;;3.90;;
13014;SDS011;6573;57.696;11.950;2024-03-23T17:13:27;13.53;;;3.73;;
13014;SDS011;6573;57.696;11.950;2024-03-23T17:16:03;14.93;;;4.57;;
13014;SDS011;6573;57.696;11.950;2024-03-23T17:18:33;15.53;;;4.27;;
13014;SDS011;6573;57.696;11.950;2024-03-23T17:21:00;12.80;;;3.20;;
13014;SDS011;6573;57.696;11.950;2024-03-23T17:23:39;15.03;;;3.80;;
13014;SDS011;6573;57.696;11.950;2024-03-23T17:28:47;13.43;;;3.80;;
13014;SDS011;6573;57.696;11.950;2024-03-23T17:31:16;17.03;;;3.97;;
13014;SDS011;6573;57.696;11.950;2024-03-23T17:33:44;26.43;;;4.50;;
13014;SDS011;6573;57.696;11.950;2024-03-23T17:36:12;20.60;;;4.63;;
13014;SDS011;6573;57.696;11.950;2024-03-23T17:38:41;16.37;;;3.93;;
13014;SDS011;6573;57.696;11.950;2024-03-23T17:41:08;16.40;;;3.37;;
13014;SDS011;6573;57.696;11.950;2024-03-23T17:43:45;14.83;;;3.00;;
13014;SDS011;6573;57.696;11.950;2024-03-23T17:46:13;13.07;;;3.50;;
13014;SDS011;6573;57.696;11.950;2024-03-23T17:48:51;13.43;;;4.03;;
13014;SDS011;6573;57.696;11.950;2024-03-23T17:51:18;11.37;;;3.17;;
13014;SDS011;6573;57.696;11.950;2024-03-23T17:53:46;13.10;;;3.03;;
13014;SDS011;6573;57.696;11.950;2024-03-23T17:56:13;13.77;;;3.83;;
13014;SDS011;6573;57.696;11.950;2024-03-23T17:58:42;13.83;;;4.03;;
13014;SDS011;6573;57.696;11.950;2024-03-23T18:01:13;13.67;;;3.63;;
13014;SDS011;6573;57.696;11.950;2024-03-23T18:03:43;14.60;;;3.37;;
13014;SDS011;6573;57.696;11.950;2024-03-23T18:06:18;10.50;;;3.20;;
13014;SDS011;6573;57.696;11.950;2024-03-23T18:08:46;12.40;;;3.73;;
13014;SDS011;6573;57.696;11.950;2024-03-23T18:11:14;11.90;;;3.30;;
13014;SDS011;6573;57.696;11.950;2024-03-23T18:13:46;13.43;;;3.00;;
13014;SDS011;6573;57.696;11.950;2024-03-23T18:16:13;10.50;;;3.00;;
13014;SDS011;6573;57.696;11.950;2024-03-23T18:19:01;12.90;;;3.50;;
13014;SDS011;6573;57.696;11.950;2024-03-23T20:43:06;9.43;;;2.43;;
13014;SDS011;6573;57.696;11.950;2024-03-23T20:45:37;9.83;;;2.90;;
13014;SDS011;6573;57.696;11.950;2024-03-23T20:48:04;9.40;;;2.63;;
13014;SDS011;6573;57.696;11.950;2024-03-23T20:51:02;10.20;;;3.07;;
13014;SDS011;6573;57.696;11.950;2024-03-23T20:54:06;11.63;;;3.00;;
13014;SDS011;6573;57.696;11.950;2024-03-23T20:57:17;10.10;;;2.83;;
